createdAt,value
2018-08-17T00:00:38.360Z,47.71
2018-08-17T00:01:38.831Z,47.71
2018-08-17T00:02:39.306Z,47.71
2018-08-17T00:03:39.776Z,47.72
2018-08-17T00:04:40.249Z,47.74
2018-08-17T00:05:40.773Z,47.74
2018-08-17T00:06:41.194Z,47.75
2018-08-17T00:07:41.666Z,47.74
2018-08-17T00:08:42.138Z,47.75
2018-08-17T00:09:42.610Z,47.75
2018-08-17T00:10:43.083Z,47.76
2018-08-17T00:11:43.557Z,47.77
2018-08-17T00:12:44.029Z,47.76
2018-08-17T00:13:44.501Z,47.76
2018-08-17T00:14:45.018Z,47.77
2018-08-17T00:15:45.496Z,47.78
2018-08-17T00:16:45.926Z,47.79
2018-08-17T00:17:46.388Z,47.79
2018-08-17T00:18:46.860Z,47.78
2018-08-17T00:19:47.333Z,47.79
2018-08-17T00:20:47.806Z,47.80
2018-08-17T00:21:48.276Z,47.80
2018-08-17T00:22:48.750Z,47.81
2018-08-17T00:23:49.221Z,47.80
2018-08-17T00:24:49.692Z,47.81
2018-08-17T00:25:50.240Z,47.82
2018-08-17T00:26:50.636Z,47.82
2018-08-17T00:27:51.108Z,47.83
2018-08-17T00:28:51.577Z,47.83
2018-08-17T00:29:52.052Z,47.83
2018-08-17T00:30:52.522Z,47.82
2018-08-17T00:31:52.996Z,47.80
2018-08-17T00:32:53.467Z,47.84
2018-08-17T00:33:53.939Z,47.84
2018-08-17T00:34:54.411Z,47.84
2018-08-17T00:35:54.881Z,47.84
2018-08-17T00:36:55.353Z,47.85
2018-08-17T00:37:55.822Z,47.85
2018-08-17T00:38:56.294Z,47.86
2018-08-17T00:39:56.767Z,47.87
2018-08-17T00:40:57.240Z,47.86
2018-08-17T00:41:57.710Z,47.86
2018-08-17T00:42:58.182Z,47.87
2018-08-17T00:43:58.651Z,47.87
2018-08-17T00:44:59.123Z,47.87
2018-08-17T00:45:59.597Z,47.88
2018-08-17T00:47:00.068Z,47.87
2018-08-17T00:48:00.569Z,47.87
2018-08-17T00:49:01.009Z,47.88
2018-08-17T00:50:01.479Z,47.89
2018-08-17T00:51:01.951Z,47.88
2018-08-17T00:52:02.423Z,47.89
2018-08-17T00:53:02.893Z,47.89
2018-08-17T00:54:03.363Z,47.89
2018-08-17T00:55:03.838Z,47.90
2018-08-17T00:56:04.305Z,47.91
2018-08-17T00:57:04.776Z,47.90
2018-08-17T00:58:05.248Z,47.91
2018-08-17T00:59:05.721Z,47.91
2018-08-17T01:00:06.190Z,47.92
2018-08-17T01:01:06.660Z,47.93
2018-08-17T01:02:07.131Z,47.94
2018-08-17T01:03:07.603Z,47.95
2018-08-17T01:04:08.075Z,47.94
2018-08-17T01:05:08.543Z,47.95
2018-08-17T01:06:09.015Z,47.96
2018-08-17T01:07:09.485Z,47.98
2018-08-17T01:08:09.957Z,48.02
2018-08-17T01:09:10.429Z,48.19
2018-08-17T01:10:10.898Z,48.46
2018-08-17T01:11:11.369Z,48.77
2018-08-17T01:12:11.841Z,49.12
2018-08-17T01:13:12.310Z,49.50
2018-08-17T01:14:12.781Z,49.89
2018-08-17T01:15:13.252Z,50.37
2018-08-17T01:16:13.721Z,50.74
2018-08-17T01:17:14.192Z,51.16
2018-08-17T01:18:14.664Z,51.45
2018-08-17T01:19:15.134Z,51.73
2018-08-17T01:20:15.606Z,52.04
2018-08-17T01:21:16.075Z,52.26
2018-08-17T01:22:16.548Z,52.51
2018-08-17T01:23:17.020Z,52.68
2018-08-17T01:24:17.492Z,52.81
2018-08-17T01:25:17.963Z,52.92
2018-08-17T01:26:18.436Z,53.00
2018-08-17T01:27:18.914Z,53.06
2018-08-17T01:28:19.381Z,53.10
2018-08-17T01:29:19.852Z,53.09
2018-08-17T01:30:20.329Z,53.09
2018-08-17T01:31:20.799Z,53.03
2018-08-17T01:32:21.273Z,52.94
2018-08-17T01:33:21.747Z,52.84
2018-08-17T01:34:22.224Z,52.71
2018-08-17T01:35:22.697Z,52.58
2018-08-17T01:36:23.169Z,52.46
2018-08-17T01:37:23.642Z,52.39
2018-08-17T01:38:24.117Z,52.30
2018-08-17T01:39:24.593Z,52.20
2018-08-17T01:40:25.070Z,52.22
2018-08-17T01:41:25.544Z,52.22
2018-08-17T01:42:26.018Z,52.23
2018-08-17T01:43:26.501Z,52.22
2018-08-17T01:44:26.969Z,52.24
2018-08-17T01:45:27.442Z,52.26
2018-08-17T01:46:27.922Z,52.28
2018-08-17T01:47:28.397Z,52.28
2018-08-17T01:48:28.868Z,52.29
2018-08-17T01:49:29.343Z,52.31
2018-08-17T01:50:29.819Z,52.33
2018-08-17T01:51:30.295Z,52.35
2018-08-17T01:52:30.771Z,52.40
2018-08-17T01:53:31.249Z,52.45
2018-08-17T01:54:31.719Z,52.49
2018-08-17T01:55:32.193Z,52.51
2018-08-17T01:56:32.873Z,52.53
2018-08-17T01:57:33.143Z,52.55
2018-08-17T01:58:33.618Z,52.55
2018-08-17T01:59:34.093Z,52.54
2018-08-17T02:00:34.570Z,52.54
2018-08-17T02:01:35.043Z,52.56
2018-08-17T02:02:35.515Z,52.56
2018-08-17T02:03:35.994Z,52.55
2018-08-17T02:04:36.465Z,52.53
2018-08-17T02:05:36.938Z,52.52
2018-08-17T02:06:37.412Z,52.51
2018-08-17T02:07:37.888Z,52.50
2018-08-17T02:08:38.362Z,52.49
2018-08-17T02:09:38.832Z,52.47
2018-08-17T02:10:39.306Z,52.46
2018-08-17T02:11:39.781Z,52.45
2018-08-17T02:12:40.253Z,52.44
2018-08-17T02:13:40.726Z,52.42
2018-08-17T02:14:41.276Z,52.40
2018-08-17T02:15:41.674Z,52.38
2018-08-17T02:16:42.148Z,52.35
2018-08-17T02:17:42.621Z,52.31
2018-08-17T02:18:43.091Z,52.26
2018-08-17T02:19:43.565Z,52.23
2018-08-17T02:20:44.044Z,52.20
2018-08-17T02:21:44.511Z,52.16
2018-08-17T02:22:44.982Z,52.13
2018-08-17T02:23:45.454Z,52.08
2018-08-17T02:24:45.928Z,52.05
2018-08-17T02:25:46.405Z,52.03
2018-08-17T02:26:46.873Z,51.97
2018-08-17T02:27:47.343Z,51.94
2018-08-17T02:28:47.816Z,51.90
2018-08-17T02:29:48.289Z,51.86
2018-08-17T02:30:48.759Z,51.84
2018-08-17T02:31:49.232Z,51.79
2018-08-17T02:32:49.704Z,51.75
2018-08-17T02:33:50.176Z,51.70
2018-08-17T02:34:50.655Z,51.65
2018-08-17T02:35:51.119Z,51.62
2018-08-17T02:36:51.592Z,51.58
2018-08-17T02:37:52.064Z,51.54
2018-08-17T02:38:52.536Z,51.50
2018-08-17T02:39:53.008Z,51.45
2018-08-17T02:40:53.480Z,51.41
2018-08-17T02:41:53.946Z,51.39
2018-08-17T02:42:54.418Z,51.34
2018-08-17T02:43:54.890Z,51.30
2018-08-17T02:44:55.361Z,51.26
2018-08-17T02:45:55.833Z,51.25
2018-08-17T02:46:56.306Z,51.27
2018-08-17T02:47:56.776Z,51.36
2018-08-17T02:48:57.245Z,51.52
2018-08-17T02:49:57.719Z,51.69
2018-08-17T02:50:58.192Z,51.86
2018-08-17T02:51:58.660Z,52.05
2018-08-17T02:52:59.131Z,52.23
2018-08-17T02:53:59.600Z,52.35
2018-08-17T02:55:00.071Z,52.54
2018-08-17T02:56:00.541Z,52.61
2018-08-17T02:57:01.013Z,52.72
2018-08-17T02:58:01.482Z,52.77
2018-08-17T02:59:01.956Z,52.82
2018-08-17T03:00:02.427Z,52.83
2018-08-17T03:01:02.899Z,52.86
2018-08-17T03:02:03.368Z,52.87
2018-08-17T03:03:03.840Z,52.85
2018-08-17T03:04:04.315Z,52.83
2018-08-17T03:05:04.785Z,52.78
2018-08-17T03:06:05.257Z,52.73
2018-08-17T03:07:05.729Z,52.71
2018-08-17T03:08:06.201Z,52.65
2018-08-17T03:09:06.674Z,52.64
2018-08-17T03:10:07.147Z,52.60
2018-08-17T03:11:07.620Z,52.56
2018-08-17T03:12:08.095Z,52.49
2018-08-17T03:13:08.574Z,52.43
2018-08-17T03:14:09.040Z,52.32
2018-08-17T03:15:09.517Z,52.27
2018-08-17T03:16:09.991Z,52.23
2018-08-17T03:17:10.466Z,52.25
2018-08-17T03:18:10.946Z,52.24
2018-08-17T03:19:11.416Z,52.21
2018-08-17T03:20:11.893Z,52.24
2018-08-17T03:21:12.364Z,52.29
2018-08-17T03:22:12.837Z,52.30
2018-08-17T03:23:13.313Z,52.32
2018-08-17T03:24:13.788Z,52.36
2018-08-17T03:25:14.268Z,52.45
2018-08-17T03:26:14.739Z,52.51
2018-08-17T03:27:15.267Z,52.54
2018-08-17T03:28:15.688Z,52.59
2018-08-17T03:29:16.166Z,52.67
2018-08-17T03:30:16.639Z,52.72
2018-08-17T03:31:17.116Z,52.78
2018-08-17T03:32:17.588Z,52.84
2018-08-17T03:33:18.063Z,52.89
2018-08-17T03:34:18.540Z,52.95
2018-08-17T03:35:19.014Z,53.00
2018-08-17T03:36:19.486Z,53.04
2018-08-17T03:37:20.048Z,53.07
2018-08-17T03:38:20.436Z,53.10
2018-08-17T03:39:20.909Z,53.12
2018-08-17T03:40:21.384Z,53.14
2018-08-17T03:41:21.857Z,53.16
2018-08-17T03:42:22.331Z,53.18
2018-08-17T03:43:22.804Z,53.19
2018-08-17T03:44:23.278Z,53.21
2018-08-17T03:45:23.753Z,53.17
2018-08-17T03:46:24.224Z,53.18
2018-08-17T03:47:24.699Z,53.16
2018-08-17T03:48:25.171Z,53.14
2018-08-17T03:49:25.646Z,53.12
2018-08-17T03:50:26.120Z,53.11
2018-08-17T03:51:26.591Z,53.08
2018-08-17T03:52:27.065Z,53.06
2018-08-17T03:53:27.537Z,53.04
2018-08-17T03:54:28.009Z,52.99
2018-08-17T03:55:28.481Z,52.96
2018-08-17T03:56:28.955Z,52.93
2018-08-17T03:57:29.426Z,52.90
2018-08-17T03:58:29.899Z,52.87
2018-08-17T03:59:30.370Z,52.85
2018-08-17T04:00:30.844Z,52.82
2018-08-17T04:01:31.314Z,52.78
2018-08-17T04:02:31.785Z,52.73
2018-08-17T04:03:32.258Z,52.71
2018-08-17T04:04:32.729Z,52.67
2018-08-17T04:05:33.205Z,52.63
2018-08-17T04:06:33.671Z,52.60
2018-08-17T04:07:34.144Z,52.60
2018-08-17T04:08:34.615Z,52.55
2018-08-17T04:09:35.085Z,52.50
2018-08-17T04:10:35.555Z,52.48
2018-08-17T04:11:36.028Z,52.52
2018-08-17T04:12:36.501Z,52.63
2018-08-17T04:13:36.975Z,52.75
2018-08-17T04:14:37.440Z,52.89
2018-08-17T04:15:37.997Z,53.01
2018-08-17T04:16:38.385Z,53.17
2018-08-17T04:17:38.852Z,53.28
2018-08-17T04:18:39.324Z,53.38
2018-08-17T04:19:39.794Z,53.45
2018-08-17T04:20:40.266Z,53.51
2018-08-17T04:21:40.738Z,53.55
2018-08-17T04:22:41.207Z,53.57
2018-08-17T04:23:41.688Z,53.61
2018-08-17T04:24:42.151Z,53.61
2018-08-17T04:25:42.622Z,53.58
2018-08-17T04:26:43.091Z,53.53
2018-08-17T04:27:43.564Z,53.49
2018-08-17T04:28:44.035Z,53.43
2018-08-17T04:29:44.508Z,53.40
2018-08-17T04:30:44.980Z,53.36
2018-08-17T04:31:45.452Z,53.33
2018-08-17T04:32:45.925Z,53.32
2018-08-17T04:33:46.403Z,53.25
2018-08-17T04:34:46.870Z,53.27
2018-08-17T04:35:47.341Z,53.24
2018-08-17T04:36:47.818Z,53.25
2018-08-17T04:37:48.289Z,53.22
2018-08-17T04:38:48.761Z,53.16
2018-08-17T04:39:49.235Z,53.08
2018-08-17T04:40:49.712Z,53.04
2018-08-17T04:41:50.184Z,53.03
2018-08-17T04:42:50.658Z,53.05
2018-08-17T04:43:51.268Z,53.10
2018-08-17T04:44:51.607Z,53.09
2018-08-17T04:45:52.083Z,53.13
2018-08-17T04:46:52.557Z,53.16
2018-08-17T04:47:53.031Z,53.22
2018-08-17T04:48:53.508Z,53.25
2018-08-17T04:49:53.981Z,53.30
2018-08-17T04:50:54.457Z,53.37
2018-08-17T04:51:54.931Z,53.45
2018-08-17T04:52:55.405Z,53.52
2018-08-17T04:53:55.881Z,53.53
2018-08-17T04:54:56.354Z,53.59
2018-08-17T04:55:56.830Z,53.69
2018-08-17T04:56:57.305Z,53.75
2018-08-17T04:57:57.785Z,53.81
2018-08-17T04:58:58.253Z,53.84
2018-08-17T04:59:58.731Z,53.90
2018-08-17T05:00:59.203Z,53.93
2018-08-17T05:01:59.676Z,53.95
2018-08-17T05:03:00.149Z,53.95
2018-08-17T05:04:00.623Z,53.94
2018-08-17T05:05:01.102Z,53.96
2018-08-17T05:06:01.577Z,53.96
2018-08-17T05:07:02.044Z,53.98
2018-08-17T05:08:02.519Z,53.97
2018-08-17T05:09:03.048Z,53.97
2018-08-17T05:10:03.466Z,53.97
2018-08-17T05:11:03.937Z,53.97
2018-08-17T05:12:04.410Z,53.91
2018-08-17T05:13:04.885Z,53.88
2018-08-17T05:14:05.361Z,53.85
2018-08-17T05:15:05.828Z,53.83
2018-08-17T05:16:06.301Z,53.79
2018-08-17T05:17:06.775Z,53.71
2018-08-17T05:18:07.246Z,53.67
2018-08-17T05:19:07.718Z,53.65
2018-08-17T05:20:08.190Z,53.63
2018-08-17T05:21:08.667Z,53.59
2018-08-17T05:22:09.137Z,53.51
2018-08-17T05:23:09.644Z,53.45
2018-08-17T05:24:10.078Z,53.43
2018-08-17T05:25:10.553Z,53.35
2018-08-17T05:26:11.023Z,53.26
2018-08-17T05:27:11.496Z,53.20
2018-08-17T05:28:11.964Z,53.16
2018-08-17T05:29:12.437Z,53.21
2018-08-17T05:30:12.907Z,53.32
2018-08-17T05:31:13.378Z,53.44
2018-08-17T05:32:13.848Z,53.50
2018-08-17T05:33:14.320Z,53.61
2018-08-17T05:34:14.792Z,53.66
2018-08-17T05:35:15.261Z,53.69
2018-08-17T05:36:15.736Z,53.72
2018-08-17T05:37:16.204Z,53.71
2018-08-17T05:38:16.677Z,53.69
2018-08-17T05:39:17.146Z,53.65
2018-08-17T05:40:17.620Z,53.58
2018-08-17T05:41:18.090Z,53.48
2018-08-17T05:42:18.562Z,53.38
2018-08-17T05:43:19.032Z,53.30
2018-08-17T05:44:19.503Z,53.23
2018-08-17T05:45:19.977Z,53.13
2018-08-17T05:46:20.449Z,53.03
2018-08-17T05:47:20.920Z,52.92
2018-08-17T05:48:21.393Z,52.85
2018-08-17T05:49:21.867Z,52.76
2018-08-17T05:50:22.337Z,52.68
2018-08-17T05:51:22.812Z,52.60
2018-08-17T05:52:23.283Z,52.52
2018-08-17T05:53:23.757Z,52.47
2018-08-17T05:54:24.231Z,52.44
2018-08-17T05:55:24.703Z,52.40
2018-08-17T05:56:25.178Z,52.30
2018-08-17T05:57:25.653Z,52.20
2018-08-17T05:58:26.130Z,52.11
2018-08-17T05:59:26.601Z,52.05
2018-08-17T06:00:27.078Z,52.03
2018-08-17T06:01:27.552Z,52.04
2018-08-17T06:02:28.024Z,52.00
2018-08-17T06:03:28.503Z,52.00
2018-08-17T06:04:28.977Z,52.00
2018-08-17T06:05:29.452Z,51.99
2018-08-17T06:06:29.931Z,52.03
2018-08-17T06:07:30.403Z,52.06
2018-08-17T06:08:30.877Z,52.10
2018-08-17T06:09:31.353Z,52.15
2018-08-17T06:10:31.829Z,52.17
2018-08-17T06:11:32.337Z,52.21
2018-08-17T06:12:32.778Z,52.26
2018-08-17T06:13:33.254Z,52.29
2018-08-17T06:14:33.729Z,52.34
2018-08-17T06:15:34.202Z,52.39
2018-08-17T06:16:34.679Z,52.43
2018-08-17T06:17:35.155Z,52.50
2018-08-17T06:18:35.629Z,52.55
2018-08-17T06:19:36.104Z,52.56
2018-08-17T06:20:36.577Z,52.58
2018-08-17T06:21:37.052Z,52.61
2018-08-17T06:22:37.530Z,52.59
2018-08-17T06:23:38.001Z,52.56
2018-08-17T06:24:38.483Z,52.54
2018-08-17T06:25:38.949Z,52.48
2018-08-17T06:26:39.426Z,52.47
2018-08-17T06:27:39.903Z,52.43
2018-08-17T06:28:40.372Z,52.37
2018-08-17T06:29:40.846Z,52.32
2018-08-17T06:30:41.318Z,52.27
2018-08-17T06:31:41.841Z,52.23
2018-08-17T06:32:42.264Z,52.21
2018-08-17T06:33:42.739Z,52.12
2018-08-17T06:34:43.213Z,52.04
2018-08-17T06:35:43.684Z,51.98
2018-08-17T06:36:44.157Z,51.95
2018-08-17T06:37:44.631Z,51.93
2018-08-17T06:38:45.105Z,51.88
2018-08-17T06:39:45.578Z,51.83
2018-08-17T06:40:46.056Z,51.79
2018-08-17T06:41:46.522Z,51.75
2018-08-17T06:42:46.997Z,51.71
2018-08-17T06:43:47.468Z,51.66
2018-08-17T06:44:47.941Z,51.60
2018-08-17T06:45:48.415Z,51.52
2018-08-17T06:46:48.886Z,51.42
2018-08-17T06:47:49.358Z,51.36
2018-08-17T06:48:49.833Z,51.28
2018-08-17T06:49:50.304Z,51.21
2018-08-17T06:50:50.960Z,51.12
2018-08-17T06:51:51.248Z,51.05
2018-08-17T06:52:51.719Z,50.97
2018-08-17T06:53:52.191Z,50.90
2018-08-17T06:54:52.668Z,50.84
2018-08-17T06:55:53.135Z,50.78
2018-08-17T06:56:53.639Z,50.70
2018-08-17T06:57:54.078Z,50.63
2018-08-17T06:58:54.550Z,50.54
2018-08-17T06:59:55.020Z,50.47
2018-08-17T07:00:55.497Z,50.40
2018-08-17T07:01:55.970Z,50.33
2018-08-17T07:02:56.439Z,50.38
2018-08-17T07:03:56.908Z,50.45
2018-08-17T07:04:57.382Z,50.55
2018-08-17T07:05:57.852Z,50.65
2018-08-17T07:06:58.326Z,50.74
2018-08-17T07:07:58.795Z,50.84
2018-08-17T07:08:59.281Z,50.91
2018-08-17T07:09:59.741Z,50.99
2018-08-17T07:11:00.215Z,51.04
2018-08-17T07:12:00.691Z,51.06
2018-08-17T07:13:01.162Z,51.05
2018-08-17T07:14:01.632Z,51.06
2018-08-17T07:15:02.107Z,51.08
2018-08-17T07:16:02.579Z,51.12
2018-08-17T07:17:03.054Z,51.17
2018-08-17T07:18:03.527Z,51.18
2018-08-17T07:19:04.001Z,51.20
2018-08-17T07:20:04.477Z,51.19
2018-08-17T07:21:04.952Z,51.17
2018-08-17T07:22:05.430Z,51.11
2018-08-17T07:23:05.907Z,51.02
2018-08-17T07:24:06.383Z,50.87
2018-08-17T07:25:06.860Z,50.71
2018-08-17T07:26:07.339Z,50.48
2018-08-17T07:27:07.817Z,50.25
2018-08-17T07:28:08.420Z,49.94
2018-08-17T07:29:08.779Z,49.66
2018-08-17T07:30:09.257Z,49.34
2018-08-17T07:31:09.737Z,48.94
2018-08-17T07:32:10.219Z,48.50
2018-08-17T07:33:10.699Z,48.05
2018-08-17T07:34:11.183Z,47.53
2018-08-17T07:35:11.666Z,46.94
2018-08-17T07:36:12.149Z,46.42
2018-08-17T07:37:12.633Z,45.96
2018-08-17T07:38:13.117Z,45.48
2018-08-17T07:39:13.602Z,45.10
2018-08-17T07:40:14.086Z,44.59
2018-08-17T07:41:14.571Z,44.19
2018-08-17T07:42:15.057Z,43.75
2018-08-17T07:43:15.541Z,43.32
2018-08-17T07:44:16.027Z,43.02
2018-08-17T07:45:16.513Z,42.80
2018-08-17T07:46:17.002Z,42.61
2018-08-17T07:47:17.488Z,42.42
2018-08-17T07:48:18.036Z,42.27
2018-08-17T07:49:18.463Z,42.12
2018-08-17T07:50:50.716Z,41.92
2018-08-17T07:51:47.954Z,41.76
2018-08-17T07:52:48.441Z,41.62
2018-08-17T07:53:48.932Z,41.52
2018-08-17T07:54:49.418Z,41.36
2018-08-17T07:55:49.907Z,41.27
2018-08-17T07:56:50.399Z,41.17
2018-08-17T07:57:50.886Z,41.07
2018-08-17T07:58:51.426Z,40.95
2018-08-17T07:59:51.865Z,40.84
2018-08-17T08:00:52.354Z,40.80
2018-08-17T08:01:52.844Z,40.69
2018-08-17T08:02:53.334Z,40.56
2018-08-17T08:03:53.825Z,40.40
2018-08-17T08:04:54.317Z,40.28
2018-08-17T08:05:54.807Z,40.16
2018-08-17T08:06:55.297Z,40.07
2018-08-17T08:07:55.787Z,39.94
2018-08-17T08:08:56.280Z,39.80
2018-08-17T08:09:56.785Z,39.71
2018-08-17T08:10:57.271Z,39.67
2018-08-17T08:11:57.753Z,39.57
2018-08-17T08:12:58.245Z,39.52
2018-08-17T08:13:58.736Z,39.50
2018-08-17T08:14:59.228Z,39.35
2018-08-17T08:15:59.721Z,39.29
2018-08-17T08:17:00.214Z,39.25
2018-08-17T08:18:00.706Z,39.19
2018-08-17T08:19:01.198Z,39.12
2018-08-17T08:20:01.693Z,39.07
2018-08-17T08:21:02.184Z,39.03
2018-08-17T08:22:02.677Z,38.96
2018-08-17T08:23:03.171Z,38.94
2018-08-17T08:24:03.663Z,38.91
2018-08-17T08:25:04.158Z,38.90
2018-08-17T08:26:04.702Z,38.86
2018-08-17T08:27:05.145Z,38.86
2018-08-17T08:28:05.636Z,38.80
2018-08-17T08:29:06.133Z,38.75
2018-08-17T08:30:06.630Z,38.73
2018-08-17T08:31:07.120Z,38.71
2018-08-17T08:32:07.614Z,38.67
2018-08-17T08:33:08.111Z,38.61
2018-08-17T08:34:08.603Z,38.56
2018-08-17T08:35:09.096Z,38.52
2018-08-17T08:36:09.599Z,38.44
2018-08-17T08:37:10.088Z,38.37
2018-08-17T08:38:10.582Z,38.18
2018-08-17T08:39:11.075Z,38.29
2018-08-17T08:40:11.569Z,38.54
2018-08-17T08:41:12.066Z,38.92
2018-08-17T08:42:12.559Z,39.17
2018-08-17T08:43:13.051Z,39.23
2018-08-17T08:44:13.547Z,39.09
2018-08-17T08:45:14.040Z,38.96
2018-08-17T08:46:14.737Z,39.38
2018-08-17T08:47:15.025Z,39.59
2018-08-17T08:48:15.519Z,39.60
2018-08-17T08:49:16.013Z,39.48
2018-08-17T08:50:16.506Z,39.56
2018-08-17T08:51:17.001Z,39.73
2018-08-17T08:52:17.490Z,39.92
2018-08-17T08:53:17.981Z,40.22
2018-08-17T08:54:18.475Z,40.67
2018-08-17T08:55:18.961Z,41.16
2018-08-17T08:56:19.453Z,41.58
2018-08-17T08:57:19.943Z,42.02
2018-08-17T08:58:20.432Z,42.46
2018-08-17T08:59:20.919Z,42.90
2018-08-17T09:00:21.407Z,43.36
2018-08-17T09:01:21.898Z,43.78
2018-08-17T09:02:22.389Z,44.35
2018-08-17T09:03:22.873Z,44.42
2018-08-17T09:04:23.361Z,44.33
2018-08-17T09:05:23.845Z,44.46
2018-08-17T09:06:24.332Z,44.53
2018-08-17T09:07:24.815Z,44.53
2018-08-17T09:08:25.303Z,44.51
2018-08-17T09:09:25.790Z,44.53
2018-08-17T09:10:26.273Z,44.51
2018-08-17T09:11:26.755Z,44.53
2018-08-17T09:12:27.243Z,44.53
2018-08-17T09:13:27.727Z,44.61
2018-08-17T09:14:28.248Z,44.70
2018-08-17T09:15:28.692Z,44.81
2018-08-17T09:16:29.176Z,44.93
2018-08-17T09:17:29.658Z,45.04
2018-08-17T09:18:30.139Z,45.14
2018-08-17T09:19:30.621Z,45.24
2018-08-17T09:20:31.106Z,45.34
2018-08-17T09:21:31.589Z,45.44
2018-08-17T09:22:32.067Z,45.51
2018-08-17T09:23:32.551Z,45.57
2018-08-17T09:24:33.047Z,45.65
2018-08-17T09:25:33.512Z,45.72
2018-08-17T09:26:33.995Z,45.77
2018-08-17T09:27:34.475Z,45.83
2018-08-17T09:28:34.956Z,45.87
2018-08-17T09:29:35.434Z,45.88
2018-08-17T09:30:35.916Z,45.91
2018-08-17T09:31:36.398Z,45.94
2018-08-17T09:32:36.876Z,45.99
2018-08-17T09:33:37.355Z,46.03
2018-08-17T09:34:37.836Z,46.03
2018-08-17T09:35:38.316Z,46.06
2018-08-17T09:36:38.794Z,46.05
2018-08-17T09:37:39.273Z,46.07
2018-08-17T09:38:39.753Z,46.09
2018-08-17T09:39:40.232Z,46.08
2018-08-17T09:40:40.713Z,46.14
2018-08-17T09:41:41.261Z,46.14
2018-08-17T09:42:41.670Z,46.16
2018-08-17T09:43:42.148Z,46.15
2018-08-17T09:44:42.625Z,46.15
2018-08-17T09:45:43.107Z,46.14
2018-08-17T09:46:43.583Z,46.12
2018-08-17T09:47:44.061Z,46.11
2018-08-17T09:48:44.546Z,46.10
2018-08-17T09:49:45.016Z,46.09
2018-08-17T09:50:45.496Z,46.06
2018-08-17T09:51:45.974Z,46.05
2018-08-17T09:52:46.451Z,46.05
2018-08-17T09:53:46.932Z,46.04
2018-08-17T09:54:47.412Z,46.04
2018-08-17T09:55:47.883Z,46.00
2018-08-17T09:56:48.362Z,45.99
2018-08-17T09:57:49.043Z,45.98
2018-08-17T09:58:49.318Z,45.97
2018-08-17T09:59:49.796Z,45.94
2018-08-17T10:00:50.272Z,45.93
2018-08-17T10:01:50.750Z,45.91
2018-08-17T10:02:51.227Z,45.89
2018-08-17T10:03:51.775Z,45.85
2018-08-17T10:04:52.182Z,45.83
2018-08-17T10:05:52.658Z,45.81
2018-08-17T10:06:53.135Z,45.80
2018-08-17T10:07:53.612Z,45.79
2018-08-17T10:08:54.090Z,45.77
2018-08-17T10:09:54.566Z,45.77
2018-08-17T10:10:55.052Z,45.76
2018-08-17T10:11:55.519Z,45.73
2018-08-17T10:12:55.996Z,45.73
2018-08-17T10:13:56.474Z,45.73
2018-08-17T10:14:56.952Z,45.72
2018-08-17T10:15:57.429Z,45.73
2018-08-17T10:16:57.906Z,45.76
2018-08-17T10:17:58.380Z,45.79
2018-08-17T10:18:58.855Z,45.80
2018-08-17T10:19:59.332Z,45.81
2018-08-17T10:21:00.128Z,45.81
2018-08-17T10:22:00.483Z,45.82
2018-08-17T10:23:00.761Z,45.83
2018-08-17T10:24:01.238Z,45.83
2018-08-17T10:25:01.714Z,45.80
2018-08-17T10:26:02.190Z,45.78
2018-08-17T10:27:02.667Z,45.76
2018-08-17T10:28:03.141Z,45.73
2018-08-17T10:30:04.094Z,45.69
2018-08-17T10:31:04.570Z,45.67
2018-08-17T10:32:05.046Z,45.69
2018-08-17T10:33:05.523Z,45.63
2018-08-17T10:34:06.051Z,45.62
2018-08-17T10:35:06.474Z,45.61
2018-08-17T10:36:06.950Z,45.60
2018-08-17T10:37:07.424Z,45.59
2018-08-17T10:38:07.906Z,45.55
2018-08-17T10:39:08.377Z,45.53
2018-08-17T10:40:08.852Z,45.52
2018-08-17T10:41:09.329Z,45.49
2018-08-17T10:42:09.803Z,45.47
2018-08-17T10:43:10.280Z,45.39
2018-08-17T10:44:10.756Z,45.24
2018-08-17T10:45:11.237Z,45.04
2018-08-17T10:46:11.708Z,44.81
2018-08-17T10:47:12.183Z,44.59
2018-08-17T10:48:12.657Z,44.39
2018-08-17T10:49:13.160Z,44.27
2018-08-17T10:50:13.608Z,44.22
2018-08-17T10:51:14.085Z,44.23
2018-08-17T10:52:14.561Z,44.25
2018-08-17T10:53:15.037Z,44.26
2018-08-17T10:54:15.513Z,44.25
2018-08-17T10:55:15.990Z,44.25
2018-08-17T10:56:16.497Z,44.25
2018-08-17T10:57:16.952Z,44.26
2018-08-17T10:58:17.415Z,44.29
2018-08-17T10:59:17.893Z,44.31
2018-08-17T11:00:18.367Z,44.32
2018-08-17T11:01:18.845Z,44.32
2018-08-17T11:02:19.319Z,44.32
2018-08-17T11:03:19.795Z,44.32
2018-08-17T11:04:20.272Z,44.30
2018-08-17T11:05:20.749Z,44.28
2018-08-17T11:06:21.222Z,44.24
2018-08-17T11:07:21.699Z,44.23
2018-08-17T11:08:22.172Z,44.23
2018-08-17T11:09:22.650Z,44.24
2018-08-17T11:10:23.126Z,44.26
2018-08-17T11:11:23.602Z,44.27
2018-08-17T11:12:24.077Z,44.28
2018-08-17T11:13:24.562Z,44.30
2018-08-17T11:14:25.048Z,44.30
2018-08-17T11:15:25.520Z,44.31
2018-08-17T11:16:25.981Z,44.33
2018-08-17T11:17:26.481Z,44.35
2018-08-17T11:18:26.932Z,44.38
2018-08-17T11:19:27.412Z,44.39
2018-08-17T11:20:27.881Z,44.40
2018-08-17T11:21:28.362Z,44.43
2018-08-17T11:22:28.835Z,44.46
2018-08-17T11:23:29.309Z,44.49
2018-08-17T11:24:29.785Z,44.50
2018-08-17T11:25:30.263Z,44.51
2018-08-17T11:26:30.738Z,44.59
2018-08-17T11:27:31.259Z,44.54
2018-08-17T11:28:31.688Z,44.56
2018-08-17T11:29:32.163Z,44.59
2018-08-17T11:30:32.638Z,44.61
2018-08-17T11:31:33.114Z,44.63
2018-08-17T11:32:33.590Z,44.65
2018-08-17T11:33:34.067Z,44.67
2018-08-17T11:34:34.543Z,44.68
2018-08-17T11:35:35.022Z,44.69
2018-08-17T11:36:35.492Z,44.68
2018-08-17T11:37:35.967Z,44.67
2018-08-17T11:38:36.444Z,44.64
2018-08-17T11:39:36.920Z,44.63
2018-08-17T11:40:37.395Z,44.62
2018-08-17T11:41:37.869Z,44.61
2018-08-17T11:42:38.550Z,44.61
2018-08-17T11:43:38.821Z,44.60
2018-08-17T11:44:39.296Z,44.61
2018-08-17T11:45:39.777Z,44.60
2018-08-17T11:46:40.247Z,44.57
2018-08-17T11:47:40.726Z,44.56
2018-08-17T11:48:41.200Z,44.55
2018-08-17T11:49:41.678Z,44.54
2018-08-17T11:50:42.151Z,44.55
2018-08-17T11:51:42.625Z,44.54
2018-08-17T11:52:43.104Z,44.50
2018-08-17T11:53:43.580Z,44.59
2018-08-17T11:54:44.053Z,44.52
2018-08-17T11:55:44.528Z,44.50
2018-08-17T11:56:45.004Z,44.48
2018-08-17T11:57:45.482Z,44.46
2018-08-17T11:58:45.956Z,44.43
2018-08-17T11:59:46.435Z,44.39
2018-08-17T12:00:46.911Z,44.39
2018-08-17T12:01:47.469Z,44.38
2018-08-17T12:02:47.860Z,44.36
2018-08-17T12:03:48.336Z,44.36
2018-08-17T12:04:48.810Z,44.39
2018-08-17T12:05:49.286Z,44.43
2018-08-17T12:06:49.762Z,44.45
2018-08-17T12:07:50.240Z,44.48
2018-08-17T12:08:50.716Z,44.49
2018-08-17T12:09:51.191Z,44.47
2018-08-17T12:10:51.665Z,44.50
2018-08-17T12:11:52.141Z,44.50
2018-08-17T12:12:52.616Z,44.51
2018-08-17T12:13:53.091Z,44.53
2018-08-17T12:14:53.566Z,44.52
2018-08-17T12:15:54.044Z,44.53
2018-08-17T12:16:54.519Z,44.52
2018-08-17T12:17:54.996Z,44.51
2018-08-17T12:18:55.471Z,44.50
2018-08-17T12:19:55.948Z,44.49
2018-08-17T12:20:56.423Z,44.48
2018-08-17T12:21:56.900Z,44.46
2018-08-17T12:22:57.374Z,44.46
2018-08-17T12:23:57.855Z,44.49
2018-08-17T12:24:58.385Z,44.49
2018-08-17T12:25:58.806Z,44.48
2018-08-17T12:26:59.328Z,44.48
2018-08-17T12:27:59.755Z,44.47
2018-08-17T12:29:00.228Z,44.47
2018-08-17T12:30:00.705Z,44.46
2018-08-17T12:31:01.181Z,44.46
2018-08-17T12:32:01.666Z,44.45
2018-08-17T12:33:02.132Z,44.45
2018-08-17T12:34:02.609Z,44.44
2018-08-17T12:35:03.085Z,44.44
2018-08-17T12:36:03.763Z,44.42
2018-08-17T12:37:04.035Z,44.41
2018-08-17T12:38:04.512Z,44.38
2018-08-17T12:39:04.989Z,44.41
2018-08-17T12:40:05.511Z,44.40
2018-08-17T12:41:05.940Z,44.38
2018-08-17T12:42:06.416Z,44.37
2018-08-17T12:43:06.893Z,44.35
2018-08-17T12:44:07.367Z,44.34
2018-08-17T12:45:07.847Z,44.33
2018-08-17T12:46:08.320Z,44.33
2018-08-17T12:47:08.797Z,44.33
2018-08-17T12:48:09.277Z,44.34
2018-08-17T12:49:09.753Z,44.35
2018-08-17T12:50:10.224Z,44.37
2018-08-17T12:51:10.703Z,44.38
2018-08-17T12:52:11.191Z,44.38
2018-08-17T12:53:11.660Z,44.38
2018-08-17T12:54:12.130Z,44.37
2018-08-17T12:55:12.609Z,44.37
2018-08-17T12:56:13.083Z,44.35
2018-08-17T12:57:13.557Z,44.35
2018-08-17T12:58:14.035Z,44.35
2018-08-17T12:59:14.512Z,44.37
2018-08-17T13:00:14.989Z,44.32